Time;durP1;ratioP1;P1;durP2;ratioP2;P2;SDS_P1;SDS_P2;PMS_P1;PMS_P2;Temp;Humidity;BMP_temperature;BMP_pressure;BME280_temperature;BME280_humidity;BME280_pressure;Samples;Min_cycle;Max_cycle;Signal;HPM_P1;HPM_P2
2023/05/26 00:01:05;;;;;;;16.10;14.90;;;12.50;99.90;;;;;;4810893;29;20213;-42
2023/05/26 00:03:30;;;;;;;15.73;14.63;;;12.50;99.90;;;;;;4809646;29;20220;-43
2023/05/26 00:05:56;;;;;;;17.00;15.50;;;12.40;99.90;;;;;;4811753;29;20455;-42
2023/05/26 00:08:22;;;;;;;16.47;15.37;;;12.40;99.90;;;;;;4811516;29;20615;-42
2023/05/26 00:10:48;;;;;;;15.43;14.43;;;12.40;99.90;;;;;;4811586;29;20213;-48
2023/05/26 00:13:14;;;;;;;16.80;15.60;;;12.30;99.90;;;;;;4810154;29;20647;-45
2023/05/26 00:15:41;;;;;;;16.53;15.33;;;12.20;99.90;;;;;;4810796;29;20635;-43
2023/05/26 00:18:06;;;;;;;21.37;19.40;;;12.20;99.90;;;;;;4810736;29;20186;-45
2023/05/26 00:20:32;;;;;;;19.30;17.67;;;12.20;99.90;;;;;;4811658;29;20450;-47
2023/05/26 00:22:58;;;;;;;19.87;18.27;;;12.10;99.90;;;;;;4811911;29;20519;-44
2023/05/26 00:25:24;;;;;;;17.87;16.37;;;12.10;99.90;;;;;;4810946;29;20553;-42
2023/05/26 00:27:50;;;;;;;17.30;16.10;;;12.10;99.90;;;;;;4813314;29;20190;-45
2023/05/26 00:30:16;;;;;;;16.77;15.57;;;12.00;99.90;;;;;;4815081;29;20829;-41
2023/05/26 00:32:41;;;;;;;16.43;15.23;;;12.00;99.90;;;;;;4814863;29;20658;-45
2023/05/26 00:35:07;;;;;;;16.23;15.13;;;11.90;99.90;;;;;;4814940;29;20516;-42
2023/05/26 00:37:33;;;;;;;16.17;14.87;;;11.90;99.90;;;;;;4816417;29;20233;-41
2023/05/26 00:39:59;;;;;;;16.40;15.30;;;11.80;99.90;;;;;;4814907;29;20499;-46
2023/05/26 00:42:24;;;;;;;16.50;15.20;;;11.80;99.90;;;;;;4815010;29;20209;-44
2023/05/26 00:44:51;;;;;;;16.33;15.13;;;11.80;99.90;;;;;;4814740;29;20223;-43
2023/05/26 00:47:17;;;;;;;16.37;15.23;;;11.80;99.90;;;;;;4813835;29;20197;-43
2023/05/26 00:49:44;;;;;;;16.00;14.80;;;11.80;99.90;;;;;;4812923;29;20455;-44
2023/05/26 00:52:10;;;;;;;16.47;15.27;;;11.80;99.90;;;;;;4814210;29;20522;-48
2023/05/26 00:54:40;;;;;;;16.13;14.93;;;11.70;99.90;;;;;;4814587;29;20803;-43
2023/05/26 00:57:06;;;;;;;16.90;15.60;;;11.70;99.90;;;;;;4813526;29;20507;-46
2023/05/26 00:59:32;;;;;;;16.10;14.93;;;11.70;99.90;;;;;;4814606;29;20532;-51
2023/05/26 01:01:59;;;;;;;16.67;15.43;;;11.70;99.90;;;;;;4813702;29;20454;-52
2023/05/26 01:04:25;;;;;;;16.50;15.40;;;11.70;99.90;;;;;;4814965;29;20434;-50
2023/05/26 01:06:52;;;;;;;16.77;15.47;;;11.70;99.90;;;;;;4814580;29;20500;-53
2023/05/26 01:09:19;;;;;;;16.87;15.60;;;11.80;99.90;;;;;;4813730;29;20443;-51
2023/05/26 01:11:54;;;;;;;16.50;15.30;;;11.70;99.90;;;;;;4814333;29;20450;-52
2023/05/26 01:14:20;;;;;;;15.97;14.87;;;11.80;99.90;;;;;;4814857;29;20474;-51
2023/05/26 01:17:11;;;;;;;16.87;15.57;;;11.80;99.90;;;;;;4812505;29;20487;-53
2023/05/26 01:20:10;;;;;;;17.13;15.73;;;11.70;99.90;;;;;;4813829;29;20190;-50
2023/05/26 01:22:55;;;;;;;17.00;15.60;;;11.70;99.90;;;;;;4812331;29;20569;-51
2023/05/26 01:25:46;;;;;;;16.53;15.33;;;11.70;99.90;;;;;;4812695;29;20455;-43
2023/05/26 01:28:19;;;;;;;16.97;15.77;;;11.70;99.90;;;;;;4814577;29;20489;-54
2023/05/26 01:30:46;;;;;;;16.77;15.53;;;11.60;99.90;;;;;;4815327;29;20441;-50
2023/05/26 01:33:12;;;;;;;17.07;15.77;;;11.60;99.90;;;;;;4814486;29;20471;-49
2023/05/26 01:35:37;;;;;;;16.97;15.70;;;11.60;99.90;;;;;;4814570;29;20433;-53
2023/05/26 01:38:04;;;;;;;16.80;15.60;;;11.50;99.90;;;;;;4814232;29;20212;-50
2023/05/26 01:40:30;;;;;;;16.10;14.80;;;11.50;99.90;;;;;;4814263;29;20194;-52
2023/05/26 01:43:02;;;;;;;16.53;15.33;;;11.50;99.90;;;;;;4814242;29;20530;-53
2023/05/26 01:45:57;;;;;;;16.80;15.50;;;11.40;99.90;;;;;;4814441;29;20480;-51
2023/05/26 01:48:23;;;;;;;15.80;14.70;;;11.40;99.90;;;;;;4812228;29;20451;-45
2023/05/26 01:50:54;;;;;;;16.60;15.20;;;11.40;99.90;;;;;;4814410;29;20438;-52
2023/05/26 01:53:23;;;;;;;17.10;15.80;;;11.30;99.90;;;;;;4813150;29;20660;-52
2023/05/26 01:55:51;;;;;;;20.00;18.10;;;11.20;99.90;;;;;;4812746;29;20431;-49
2023/05/26 01:58:18;;;;;;;18.67;17.17;;;11.20;99.90;;;;;;4814212;29;20431;-52
2023/05/26 02:00:47;;;;;;;19.23;17.63;;;11.10;99.90;;;;;;4813833;29;20431;-51
2023/05/26 02:03:14;;;;;;;17.70;16.37;;;11.00;99.90;;;;;;4813572;29;20427;-50
2023/05/26 02:05:40;;;;;;;16.67;15.20;;;11.00;99.90;;;;;;4814071;29;20462;-49
2023/05/26 02:08:05;;;;;;;17.60;16.30;;;11.00;99.90;;;;;;4812745;29;20503;-48
2023/05/26 02:10:31;;;;;;;18.87;17.17;;;10.90;99.90;;;;;;4814365;29;20443;-50
2023/05/26 02:12:57;;;;;;;17.20;15.80;;;10.80;99.90;;;;;;4813683;29;20212;-52
2023/05/26 02:15:22;;;;;;;17.87;16.57;;;10.80;99.90;;;;;;4813350;29;20242;-53
2023/05/26 02:17:48;;;;;;;17.63;16.23;;;10.70;99.90;;;;;;4813408;29;20198;-53
2023/05/26 02:20:15;;;;;;;17.50;15.83;;;10.60;99.90;;;;;;4813800;29;20182;-50
2023/05/26 02:22:41;;;;;;;15.90;14.77;;;10.60;99.90;;;;;;4813253;29;20803;-50
2023/05/26 02:25:07;;;;;;;15.97;14.77;;;10.50;99.90;;;;;;4813699;29;20506;-53
2023/05/26 02:27:32;;;;;;;16.50;15.20;;;10.50;99.90;;;;;;4813660;29;20193;-53
2023/05/26 02:29:58;;;;;;;16.10;14.77;;;10.50;99.90;;;;;;4813458;29;20449;-52
2023/05/26 02:32:25;;;;;;;17.07;15.70;;;10.50;99.90;;;;;;4812391;29;20204;-50
2023/05/26 02:34:50;;;;;;;15.97;14.77;;;10.40;99.90;;;;;;4813441;29;20263;-49
2023/05/26 02:37:17;;;;;;;16.07;14.80;;;10.30;99.90;;;;;;4813569;29;21176;-54
2023/05/26 02:39:43;;;;;;;16.03;14.73;;;10.30;99.90;;;;;;4814047;29;20220;-51
2023/05/26 02:42:09;;;;;;;17.03;15.63;;;10.30;99.90;;;;;;4813442;29;20422;-50
2023/05/26 02:44:34;;;;;;;15.53;14.30;;;10.30;99.90;;;;;;4813424;29;20490;-49
2023/05/26 02:47:00;;;;;;;16.77;15.47;;;10.30;99.90;;;;;;4812153;29;20999;-48
2023/05/26 02:49:26;;;;;;;17.17;15.87;;;10.30;99.90;;;;;;4813433;29;20220;-51
2023/05/26 02:51:51;;;;;;;16.40;15.20;;;10.30;99.90;;;;;;4812631;29;20253;-51
2023/05/26 02:54:17;;;;;;;16.60;15.23;;;10.40;99.90;;;;;;4813125;29;20231;-52
2023/05/26 02:56:42;;;;;;;17.00;15.70;;;10.40;99.90;;;;;;4813494;29;20190;-49
2023/05/26 02:59:08;;;;;;;17.00;15.60;;;10.50;99.90;;;;;;4813232;29;20583;-49
2023/05/26 03:01:34;;;;;;;16.23;14.87;;;10.50;99.90;;;;;;4813016;29;20201;-46
2023/05/26 03:03:59;;;;;;;16.00;14.80;;;10.50;99.90;;;;;;4812850;29;20741;-53
2023/05/26 03:06:27;;;;;;;15.87;14.70;;;10.60;99.90;;;;;;4813069;29;20971;-50
2023/05/26 03:08:52;;;;;;;17.37;15.87;;;10.70;99.90;;;;;;4813438;29;20284;-55
2023/05/26 03:11:18;;;;;;;17.93;16.50;;;10.70;99.90;;;;;;4812848;29;20461;-51
2023/05/26 03:13:44;;;;;;;17.13;15.80;;;10.80;99.90;;;;;;4813237;29;20213;-51
2023/05/26 03:16:10;;;;;;;16.83;15.43;;;10.90;99.90;;;;;;4812354;29;20258;-49
2023/05/26 03:18:36;;;;;;;16.50;15.10;;;11.00;99.90;;;;;;4812318;29;20193;-49
2023/05/26 03:21:04;;;;;;;17.47;15.83;;;11.10;99.90;;;;;;4813338;29;20442;-51
2023/05/26 03:23:29;;;;;;;17.43;16.13;;;11.20;99.90;;;;;;4812533;29;21514;-50
2023/05/26 03:25:55;;;;;;;17.37;15.93;;;11.20;99.90;;;;;;4812972;29;20439;-54
2023/05/26 03:28:20;;;;;;;16.60;15.30;;;11.30;99.90;;;;;;4812483;29;20680;-49
2023/05/26 03:30:46;;;;;;;16.87;15.47;;;11.40;99.90;;;;;;4812160;29;20205;-51
2023/05/26 03:33:12;;;;;;;17.23;15.83;;;11.40;99.90;;;;;;4812449;29;20214;-51
2023/05/26 03:35:37;;;;;;;16.13;15.03;;;11.50;99.90;;;;;;4811050;29;20255;-47
2023/05/26 03:38:03;;;;;;;15.30;14.10;;;11.50;99.90;;;;;;4812647;29;20189;-53
2023/05/26 03:40:28;;;;;;;17.40;15.70;;;11.60;99.90;;;;;;4812789;29;20637;-50
2023/05/26 03:42:54;;;;;;;17.37;16.03;;;11.60;99.90;;;;;;4812587;29;20182;-54
2023/05/26 03:45:20;;;;;;;17.97;16.57;;;11.60;99.90;;;;;;4812657;29;20696;-49
2023/05/26 03:47:45;;;;;;;17.33;16.03;;;11.70;99.90;;;;;;4810857;29;20205;-55
2023/05/26 03:50:11;;;;;;;17.17;15.87;;;11.70;99.90;;;;;;4812592;29;20189;-51
2023/05/26 03:52:37;;;;;;;17.17;15.87;;;11.80;99.90;;;;;;4812044;29;20220;-50
2023/05/26 03:55:04;;;;;;;15.27;14.10;;;11.90;99.90;;;;;;4795806;29;20218;-54
2023/05/26 03:57:30;;;;;;;16.63;15.43;;;11.90;99.90;;;;;;4812608;29;20430;-49
2023/05/26 03:59:55;;;;;;;16.93;15.53;;;12.00;99.90;;;;;;4812234;29;20431;-53
2023/05/26 04:02:21;;;;;;;15.73;14.53;;;12.00;99.90;;;;;;4812298;29;21697;-50
2023/05/26 04:04:47;;;;;;;16.57;15.17;;;12.10;99.90;;;;;;4812436;29;20194;-52
2023/05/26 04:07:12;;;;;;;15.90;14.60;;;12.10;99.90;;;;;;4812325;29;20596;-53
2023/05/26 04:09:38;;;;;;;16.57;15.23;;;12.20;99.90;;;;;;4812134;29;20277;-49
2023/05/26 04:12:05;;;;;;;17.63;16.10;;;12.20;99.90;;;;;;4812088;29;20193;-54
2023/05/26 04:14:30;;;;;;;16.83;15.50;;;12.30;99.90;;;;;;4812024;29;20210;-49
2023/05/26 04:16:56;;;;;;;15.70;14.60;;;12.30;99.90;;;;;;4809567;29;20454;-50
2023/05/26 04:19:22;;;;;;;15.90;14.80;;;12.40;99.90;;;;;;4793106;29;20194;-52
2023/05/26 04:21:47;;;;;;;16.60;15.40;;;12.40;99.90;;;;;;4811011;29;20284;-53
2023/05/26 04:24:13;;;;;;;16.33;14.93;;;12.40;99.90;;;;;;4811810;29;20252;-51
2023/05/26 04:26:38;;;;;;;15.70;14.60;;;12.50;99.90;;;;;;4794870;29;20206;-49
2023/05/26 04:29:04;;;;;;;14.80;13.60;;;12.50;99.90;;;;;;4811520;29;20217;-52
2023/05/26 04:31:29;;;;;;;16.53;15.30;;;12.60;99.90;;;;;;4812460;29;20560;-51
2023/05/26 04:33:57;;;;;;;17.10;15.77;;;12.70;99.90;;;;;;4811456;29;20244;-49
2023/05/26 04:36:23;;;;;;;16.67;15.30;;;12.80;99.90;;;;;;4810715;29;20194;-48
2023/05/26 04:38:49;;;;;;;17.30;16.07;;;12.80;99.90;;;;;;4811552;29;20457;-43
2023/05/26 04:41:16;;;;;;;16.67;14.77;;;12.80;99.90;;;;;;4811005;29;20447;-45
2023/05/26 04:43:43;;;;;;;17.10;15.40;;;12.90;99.90;;;;;;4811997;29;20477;-47
2023/05/26 04:46:10;;;;;;;16.20;14.90;;;13.00;99.90;;;;;;4810729;29;20471;-46
2023/05/26 04:48:40;;;;;;;17.00;15.60;;;13.00;99.90;;;;;;4811763;29;20435;-45
2023/05/26 04:51:08;;;;;;;16.20;14.50;;;13.10;99.90;;;;;;4811973;29;20439;-43
2023/05/26 04:53:35;;;;;;;17.83;16.40;;;13.20;99.90;;;;;;4811002;29;20478;-44
2023/05/26 04:56:23;;;;;;;16.43;15.13;;;13.30;99.90;;;;;;4809241;29;20603;-49
2023/05/26 05:01:54;;;;;;;15.60;14.50;;;13.40;99.90;;;;;;4811385;29;20458;-47
2023/05/26 05:04:19;;;;;;;17.77;16.37;;;13.40;99.90;;;;;;4811654;29;21323;-49
2023/05/26 05:06:45;;;;;;;17.20;15.70;;;13.60;99.90;;;;;;4811839;29;20230;-48
2023/05/26 05:09:11;;;;;;;16.33;15.13;;;13.60;99.90;;;;;;4811561;29;20626;-49
2023/05/26 05:11:36;;;;;;;16.47;15.27;;;13.70;99.90;;;;;;4811585;29;20986;-46
2023/05/26 05:14:02;;;;;;;16.47;15.27;;;13.80;99.90;;;;;;4812940;29;20259;-47
2023/05/26 05:16:28;;;;;;;17.93;16.43;;;14.00;99.90;;;;;;4813629;29;20198;-45
2023/05/26 05:18:53;;;;;;;17.10;15.80;;;14.10;99.90;;;;;;4815388;29;20186;-46
2023/05/26 05:21:19;;;;;;;17.03;15.27;;;14.10;99.90;;;;;;4814967;29;20756;-43
2023/05/26 05:23:45;;;;;;;16.73;15.40;;;14.30;99.90;;;;;;4814729;29;20248;-43
2023/05/26 05:26:11;;;;;;;15.70;14.60;;;14.30;99.90;;;;;;4814674;29;20257;-44
2023/05/26 05:28:37;;;;;;;19.10;17.40;;;14.30;99.90;;;;;;4815064;29;20437;-44
2023/05/26 05:31:03;;;;;;;16.07;14.87;;;14.40;99.90;;;;;;4814898;29;20430;-48
2023/05/26 05:33:28;;;;;;;17.37;15.90;;;14.50;99.90;;;;;;4814622;29;20225;-43
2023/05/26 05:35:54;;;;;;;17.00;15.90;;;14.50;99.90;;;;;;4814813;29;20205;-46
2023/05/26 05:38:20;;;;;;;17.33;16.00;;;14.50;99.90;;;;;;4814575;29;20189;-46
2023/05/26 05:40:45;;;;;;;17.47;16.10;;;14.60;99.90;;;;;;4814411;29;20197;-42
2023/05/26 05:43:11;;;;;;;18.07;16.77;;;14.70;99.90;;;;;;4814930;29;20205;-47
2023/05/26 05:45:36;;;;;;;17.30;15.80;;;14.80;99.90;;;;;;4814350;29;20212;-47
2023/05/26 05:48:02;;;;;;;16.90;15.67;;;14.80;99.90;;;;;;4813357;29;20229;-47
2023/05/26 05:50:27;;;;;;;17.37;16.10;;;14.90;99.90;;;;;;4814267;29;20205;-48
2023/05/26 05:52:53;;;;;;;16.80;15.47;;;14.90;99.90;;;;;;4814271;29;20206;-54
2023/05/26 05:55:19;;;;;;;18.47;17.07;;;15.00;99.90;;;;;;4813906;29;20231;-48
2023/05/26 05:57:44;;;;;;;17.37;16.17;;;15.00;99.90;;;;;;4812372;29;20277;-55
2023/05/26 06:00:11;;;;;;;17.23;16.03;;;15.10;99.90;;;;;;4814089;29;20209;-53
2023/05/26 06:02:37;;;;;;;16.77;15.37;;;15.20;99.90;;;;;;4814216;29;20194;-51
2023/05/26 06:05:03;;;;;;;16.83;15.43;;;15.20;99.90;;;;;;4814260;29;20434;-50
2023/05/26 06:07:29;;;;;;;17.23;15.90;;;15.30;99.90;;;;;;4814333;29;20488;-46
2023/05/26 06:09:57;;;;;;;18.10;16.30;;;15.30;99.90;;;;;;4813932;29;20531;-51
2023/05/26 06:12:23;;;;;;;16.10;15.00;;;15.40;99.90;;;;;;4813873;29;20438;-51
2023/05/26 06:14:48;;;;;;;18.60;17.17;;;15.50;99.90;;;;;;4814195;29;20531;-50
2023/05/26 06:17:14;;;;;;;17.03;15.63;;;15.40;99.90;;;;;;4814589;29;20840;-51
2023/05/26 06:19:40;;;;;;;17.67;16.30;;;15.30;99.90;;;;;;4814208;29;20190;-53
2023/05/26 06:22:05;;;;;;;17.83;16.53;;;15.40;99.90;;;;;;4813880;29;20237;-48
2023/05/26 06:24:31;;;;;;;18.00;16.50;;;15.40;99.90;;;;;;4809535;29;20207;-49
2023/05/26 06:26:56;;;;;;;18.50;17.10;;;15.30;99.90;;;;;;4814000;29;20574;-48
2023/05/26 06:29:22;;;;;;;16.57;15.20;;;15.30;99.90;;;;;;4814078;29;21159;-51
2023/05/26 06:31:47;;;;;;;17.27;15.70;;;15.20;99.90;;;;;;4814003;29;20202;-51
2023/05/26 06:34:13;;;;;;;18.13;16.73;;;15.20;99.90;;;;;;4812188;29;20321;-51
2023/05/26 06:36:39;;;;;;;17.90;16.37;;;15.20;99.90;;;;;;4811302;29;20196;-50
2023/05/26 06:39:04;;;;;;;16.80;15.60;;;15.30;99.90;;;;;;4812886;29;20975;-56
2023/05/26 06:41:30;;;;;;;16.60;15.40;;;15.30;99.90;;;;;;4812497;29;20265;-54
2023/05/26 06:43:55;;;;;;;16.30;15.17;;;15.40;99.90;;;;;;4813645;29;20205;-53
2023/05/26 06:46:21;;;;;;;17.40;16.00;;;15.60;99.90;;;;;;4811283;29;20216;-49
2023/05/26 06:48:47;;;;;;;17.23;15.90;;;15.70;99.90;;;;;;4813584;29;20194;-50
2023/05/26 06:51:12;;;;;;;18.73;17.00;;;15.80;99.90;;;;;;4813415;29;20724;-49
2023/05/26 06:53:38;;;;;;;16.27;15.10;;;15.70;99.90;;;;;;4813633;29;20244;-52
2023/05/26 06:56:05;;;;;;;18.83;17.33;;;15.80;99.90;;;;;;4813049;29;21030;-53
2023/05/26 06:58:31;;;;;;;17.77;16.33;;;16.00;99.90;;;;;;4812710;29;20443;-53
2023/05/26 07:01:02;;;;;;;19.27;17.57;;;16.20;99.90;;;;;;4813082;29;20431;-50
2023/05/26 07:03:28;;;;;;;17.57;16.10;;;16.40;99.90;;;;;;4796776;29;20496;-51
2023/05/26 07:05:57;;;;;;;17.40;16.20;;;16.40;99.90;;;;;;4813046;29;20439;-53
2023/05/26 07:08:24;;;;;;;17.70;16.30;;;16.50;99.90;;;;;;4813115;29;20443;-52
2023/05/26 07:10:50;;;;;;;17.17;15.97;;;16.70;99.90;;;;;;4813239;29;20438;-52
2023/05/26 07:13:15;;;;;;;16.97;15.77;;;16.80;99.90;;;;;;4813331;29;20482;-50
2023/05/26 07:15:42;;;;;;;17.17;15.97;;;17.00;99.90;;;;;;4812057;29;20194;-48
2023/05/26 07:18:08;;;;;;;17.37;16.07;;;17.20;99.90;;;;;;4812563;29;20198;-50
2023/05/26 07:20:34;;;;;;;17.70;16.30;;;17.40;98.90;;;;;;4813454;29;20455;-47
2023/05/26 07:23:00;;;;;;;16.60;15.40;;;17.60;98.20;;;;;;4793258;29;20652;-48
2023/05/26 07:25:26;;;;;;;17.57;16.40;;;17.90;96.80;;;;;;4794725;29;20440;-48
2023/05/26 07:27:51;;;;;;;16.97;15.57;;;18.00;96.00;;;;;;4794688;29;20198;-51
2023/05/26 07:30:18;;;;;;;16.60;15.20;;;18.00;96.10;;;;;;4795081;29;21022;-47
2023/05/26 07:32:43;;;;;;;17.60;15.73;;;18.00;94.90;;;;;;4794993;29;20198;-49
2023/05/26 07:35:09;;;;;;;17.70;16.20;;;18.00;95.00;;;;;;4794463;29;20471;-48
2023/05/26 07:37:35;;;;;;;17.07;15.63;;;18.00;95.00;;;;;;4794067;29;20183;-51
2023/05/26 07:40:02;;;;;;;15.93;14.73;;;18.10;94.80;;;;;;4794480;29;20190;-51
2023/05/26 07:42:28;;;;;;;17.70;16.30;;;18.10;94.70;;;;;;4794222;29;20423;-52
2023/05/26 07:44:55;;;;;;;17.60;16.40;;;18.00;94.80;;;;;;4793481;29;20442;-52
2023/05/26 07:47:21;;;;;;;17.40;16.10;;;18.00;94.90;;;;;;4791382;29;20191;-52
2023/05/26 07:49:46;;;;;;;16.67;15.47;;;17.90;95.20;;;;;;4793717;29;20495;-52
2023/05/26 07:52:12;;;;;;;17.27;15.87;;;17.80;95.20;;;;;;4794258;29;20255;-48
2023/05/26 07:54:37;;;;;;;16.30;15.20;;;17.80;95.10;;;;;;4794029;29;20879;-52
2023/05/26 07:57:03;;;;;;;16.70;15.30;;;17.80;95.00;;;;;;4794643;29;20182;-54
2023/05/26 07:59:29;;;;;;;16.77;15.47;;;17.80;95.20;;;;;;4794137;29;20298;-52
2023/05/26 08:01:54;;;;;;;18.27;16.77;;;17.90;95.30;;;;;;4794421;29;20199;-50
2023/05/26 08:04:20;;;;;;;17.40;15.80;;;18.10;95.10;;;;;;4794491;29;20190;-52
2023/05/26 08:06:46;;;;;;;16.93;15.73;;;18.30;95.00;;;;;;4794052;29;20211;-53
2023/05/26 08:09:11;;;;;;;16.90;15.53;;;18.50;94.80;;;;;;4794177;29;20194;-52
2023/05/26 08:11:37;;;;;;;16.20;14.90;;;18.80;94.40;;;;;;4794398;29;20254;-50
2023/05/26 08:14:03;;;;;;;16.10;14.80;;;19.10;94.50;;;;;;4793113;29;20210;-51
2023/05/26 08:16:28;;;;;;;16.90;15.60;;;19.40;92.60;;;;;;4793923;29;20198;-51
2023/05/26 08:18:54;;;;;;;17.10;15.80;;;19.60;91.40;;;;;;4794034;29;21271;-51
2023/05/26 08:21:19;;;;;;;16.57;15.47;;;19.60;90.20;;;;;;4794157;29;20198;-50
2023/05/26 08:23:45;;;;;;;17.60;16.20;;;19.60;90.70;;;;;;4809749;29;20249;-50
2023/05/26 08:26:11;;;;;;;15.40;14.30;;;19.60;88.70;;;;;;4812269;29;21006;-48
2023/05/26 08:28:36;;;;;;;15.90;14.17;;;19.60;90.00;;;;;;4811943;29;20182;-49
2023/05/26 08:31:02;;;;;;;16.80;15.20;;;19.60;88.70;;;;;;4811909;29;20266;-51
2023/05/26 08:33:28;;;;;;;15.63;14.63;;;19.70;88.70;;;;;;4812346;29;20241;-50
2023/05/26 08:35:53;;;;;;;14.97;13.87;;;19.80;88.60;;;;;;4811945;29;20216;-51
2023/05/26 08:38:19;;;;;;;15.60;14.50;;;19.80;87.40;;;;;;4812076;29;20202;-54
2023/05/26 08:40:47;;;;;;;14.70;13.57;;;19.90;85.50;;;;;;4811785;29;20186;-52
2023/05/26 08:43:15;;;;;;;15.20;13.90;;;20.10;85.90;;;;;;4795379;29;20200;-52
2023/05/26 08:45:42;;;;;;;15.90;14.50;;;20.30;83.10;;;;;;4811173;29;20977;-53
2023/05/26 08:48:12;;;;;;;15.63;14.60;;;20.20;81.50;;;;;;4811704;29;20431;-54
2023/05/26 08:50:38;;;;;;;15.70;14.60;;;20.20;81.60;;;;;;4815223;29;20458;-52
2023/05/26 08:53:04;;;;;;;15.90;14.70;;;20.40;80.80;;;;;;4815026;29;20435;-52
2023/05/26 08:55:34;;;;;;;15.93;14.63;;;20.30;81.50;;;;;;4815183;29;20454;-47
2023/05/26 08:58:00;;;;;;;14.67;13.67;;;20.30;77.70;;;;;;4815454;29;20197;-53
2023/05/26 09:00:29;;;;;;;16.17;14.87;;;20.40;76.60;;;;;;4814851;29;20427;-52
2023/05/26 09:02:56;;;;;;;14.53;13.23;;;20.50;74.50;;;;;;4813836;29;20451;-52
2023/05/26 09:05:22;;;;;;;14.97;13.87;;;20.80;72.70;;;;;;4815218;29;20793;-50
2023/05/26 09:07:48;;;;;;;15.20;14.00;;;21.10;71.10;;;;;;4815290;29;20434;-48
2023/05/26 09:10:22;;;;;;;15.00;13.93;;;21.20;69.80;;;;;;4814865;29;20953;-54
2023/05/26 09:12:48;;;;;;;13.27;12.17;;;21.40;67.90;;;;;;4815087;29;20190;-51
2023/05/26 09:15:21;;;;;;;14.10;12.80;;;21.30;67.70;;;;;;4813051;29;21014;-52
2023/05/26 09:17:48;;;;;;;13.40;12.20;;;21.50;66.00;;;;;;4815029;29;20434;-51
2023/05/26 09:20:14;;;;;;;14.93;13.80;;;21.60;65.40;;;;;;4814758;29;20839;-48
2023/05/26 09:22:40;;;;;;;13.07;12.20;;;21.50;60.10;;;;;;4815555;29;20678;-51
2023/05/26 09:25:05;;;;;;;13.77;12.87;;;21.60;61.50;;;;;;4815260;29;20546;-49
2023/05/26 09:27:31;;;;;;;13.33;12.40;;;21.80;60.80;;;;;;4814009;29;20547;-50
2023/05/26 09:30:00;;;;;;;12.67;11.60;;;22.20;61.70;;;;;;4814789;29;20192;-53
2023/05/26 09:32:29;;;;;;;13.97;12.87;;;22.60;60.30;;;;;;4814849;29;20201;-55
2023/05/26 09:34:56;;;;;;;12.93;11.93;;;22.90;59.00;;;;;;4814837;29;20470;-50
2023/05/26 09:37:29;;;;;;;13.60;12.60;;;23.50;55.10;;;;;;4815089;29;20502;-49
2023/05/26 09:40:08;;;;;;;13.90;12.90;;;23.50;54.60;;;;;;4814919;29;20419;-50
2023/05/26 09:42:47;;;;;;;14.20;13.20;;;23.40;54.80;;;;;;4814654;29;20475;-49
2023/05/26 09:45:13;;;;;;;13.97;12.57;;;23.70;53.20;;;;;;4814378;29;20430;-51
2023/05/26 09:47:38;;;;;;;13.63;12.50;;;24.30;52.70;;;;;;4814141;29;20435;-51
2023/05/26 09:50:05;;;;;;;14.80;13.70;;;24.30;51.20;;;;;;4814802;29;20201;-55
2023/05/26 09:52:34;;;;;;;12.67;11.80;;;24.10;51.60;;;;;;4814340;29;20190;-46
2023/05/26 09:55:00;;;;;;;13.67;12.47;;;23.80;53.60;;;;;;4813258;29;20506;-51
2023/05/26 09:57:28;;;;;;;13.60;12.60;;;23.50;52.00;;;;;;4812569;29;21095;-51
2023/05/26 09:59:55;;;;;;;12.30;11.20;;;23.60;51.50;;;;;;4813493;29;20258;-51
2023/05/26 10:02:23;;;;;;;12.90;12.00;;;23.90;51.60;;;;;;4813639;29;20428;-53
2023/05/26 10:04:50;;;;;;;13.90;13.00;;;24.10;48.00;;;;;;4814115;29;20518;-49
2023/05/26 10:07:18;;;;;;;12.77;11.87;;;24.60;47.60;;;;;;4814074;29;20446;-52
2023/05/26 10:09:49;;;;;;;13.40;12.30;;;25.30;46.80;;;;;;4813908;29;20427;-52
2023/05/26 10:12:17;;;;;;;13.30;12.40;;;25.70;44.40;;;;;;4813945;29;20431;-51
2023/05/26 10:14:43;;;;;;;12.13;11.33;;;25.80;41.10;;;;;;4813990;29;20999;-53
2023/05/26 10:17:09;;;;;;;13.47;12.57;;;25.60;39.40;;;;;;4813848;29;20428;-54
2023/05/26 10:19:34;;;;;;;13.53;12.53;;;26.00;37.90;;;;;;4813997;29;20426;-50
2023/05/26 10:22:10;;;;;;;12.60;11.90;;;26.20;36.50;;;;;;4813613;29;21245;-52
2023/05/26 10:24:40;;;;;;;13.20;12.20;;;26.70;35.60;;;;;;4812220;29;20308;-48
2023/05/26 10:27:17;;;;;;;12.17;11.47;;;27.20;35.10;;;;;;4813854;29;20495;-50
2023/05/26 10:29:54;;;;;;;13.50;12.60;;;27.60;34.20;;;;;;4813932;29;20434;-50
2023/05/26 10:32:43;;;;;;;12.53;11.80;;;28.40;33.50;;;;;;4813836;29;20422;-51
2023/05/26 10:35:30;;;;;;;13.33;12.43;;;29.10;30.90;;;;;;4813940;29;20474;-51
2023/05/26 10:38:13;;;;;;;13.90;12.67;;;29.30;29.30;;;;;;4813252;29;20430;-51
2023/05/26 10:40:42;;;;;;;13.37;12.30;;;28.70;29.30;;;;;;4813414;29;20508;-47
2023/05/26 10:43:17;;;;;;;12.60;11.90;;;28.80;30.00;;;;;;4812759;29;20461;-54
2023/05/26 10:45:57;;;;;;;13.60;12.80;;;28.30;27.20;;;;;;4813158;29;20430;-52
2023/05/26 10:48:35;;;;;;;14.53;13.47;;;27.70;29.40;;;;;;4813459;29;20419;-51
2023/05/26 10:51:09;;;;;;;13.47;12.60;;;27.40;29.90;;;;;;4813610;29;20419;-52
2023/05/26 10:53:42;;;;;;;13.60;12.60;;;27.70;29.20;;;;;;4813243;29;21335;-50
2023/05/26 10:56:11;;;;;;;12.70;11.90;;;27.60;29.00;;;;;;4813464;29;21612;-49
2023/05/26 10:58:40;;;;;;;12.50;11.67;;;28.10;29.60;;;;;;4813173;29;21058;-50
2023/05/26 11:01:09;;;;;;;12.33;11.40;;;28.50;28.30;;;;;;4813297;29;20431;-52
2023/05/26 11:03:36;;;;;;;12.50;11.67;;;29.10;25.50;;;;;;4813169;29;20436;-51
2023/05/26 11:06:03;;;;;;;12.50;11.80;;;29.60;26.00;;;;;;4796647;29;20465;-53
2023/05/26 11:08:44;;;;;;;12.80;12.00;;;30.30;24.10;;;;;;4812856;29;20427;-54
2023/05/26 11:11:12;;;;;;;12.03;11.27;;;30.60;23.10;;;;;;4812373;29;20431;-52
2023/05/26 11:13:38;;;;;;;12.60;11.80;;;30.80;22.50;;;;;;4811969;29;21112;-46
2023/05/26 11:16:24;;;;;;;12.03;11.23;;;30.80;22.90;;;;;;4811877;29;20442;-51
2023/05/26 11:18:56;;;;;;;12.17;11.47;;;31.30;22.30;;;;;;4812844;29;20414;-50
2023/05/26 11:21:27;;;;;;;13.27;12.37;;;31.60;22.40;;;;;;4796327;29;20526;-50
2023/05/26 11:23:56;;;;;;;13.10;11.90;;;31.90;21.20;;;;;;4812986;29;20463;-53
2023/05/26 11:26:22;;;;;;;12.80;12.10;;;32.20;19.80;;;;;;4813123;29;20545;-50
2023/05/26 11:28:49;;;;;;;13.20;12.40;;;32.20;19.50;;;;;;4813312;29;20450;-50
2023/05/26 11:31:16;;;;;;;12.30;11.60;;;32.50;18.00;;;;;;4812877;29;20434;-49
2023/05/26 11:33:43;;;;;;;12.30;11.50;;;32.40;18.80;;;;;;4812655;29;20473;-51
2023/05/26 11:36:16;;;;;;;12.50;11.70;;;32.30;18.50;;;;;;4812808;29;20431;-50
2023/05/26 11:38:45;;;;;;;11.77;11.07;;;32.10;18.80;;;;;;4812753;29;20423;-52
2023/05/26 11:41:15;;;;;;;12.20;11.57;;;32.30;18.60;;;;;;4812636;29;20937;-52
2023/05/26 11:43:43;;;;;;;11.80;11.00;;;32.30;18.60;;;;;;4811573;29;21248;-50
2023/05/26 11:46:10;;;;;;;12.73;11.73;;;32.20;19.10;;;;;;4810456;29;21182;-49
2023/05/26 11:48:39;;;;;;;12.80;12.00;;;31.90;18.40;;;;;;4812184;29;21297;-52
2023/05/26 11:51:23;;;;;;;12.40;11.70;;;32.30;18.90;;;;;;4812490;29;21169;-46
2023/05/26 11:53:57;;;;;;;11.77;11.17;;;32.10;18.70;;;;;;4811556;29;20550;-51
2023/05/26 11:56:33;;;;;;;12.23;11.33;;;32.30;18.90;;;;;;4812421;29;20423;-50
2023/05/26 11:59:00;;;;;;;13.13;12.23;;;32.30;19.30;;;;;;4812087;29;20564;-49
2023/05/26 12:01:26;;;;;;;11.97;11.00;;;32.50;20.40;;;;;;4811932;29;20470;-51
2023/05/26 12:03:52;;;;;;;12.73;11.73;;;32.80;20.10;;;;;;4811100;29;20522;-53
2023/05/26 12:06:20;;;;;;;12.57;11.83;;;33.10;17.90;;;;;;4812302;29;20262;-49
2023/05/26 12:08:50;;;;;;;12.40;11.70;;;33.30;19.10;;;;;;4811622;29;20443;-54
2023/05/26 12:11:19;;;;;;;12.33;11.50;;;33.70;17.90;;;;;;4812360;29;20447;-53
2023/05/26 12:13:45;;;;;;;12.53;11.93;;;33.40;18.00;;;;;;4811299;29;20482;-51
2023/05/26 12:16:27;;;;;;;12.50;11.80;;;33.30;17.40;;;;;;4812326;29;20795;-52
2023/05/26 12:18:54;;;;;;;11.87;11.00;;;33.50;17.10;;;;;;4812350;29;20434;-51
2023/05/26 12:21:21;;;;;;;12.37;11.47;;;33.50;17.20;;;;;;4812327;29;20431;-53
2023/05/26 12:23:47;;;;;;;12.33;11.50;;;33.50;16.80;;;;;;4811575;29;20490;-54
2023/05/26 12:26:28;;;;;;;12.30;11.50;;;33.50;16.90;;;;;;4812298;29;20435;-54
2023/05/26 12:29:10;;;;;;;12.10;11.30;;;33.60;16.90;;;;;;4811783;29;20462;-50
2023/05/26 12:31:55;;;;;;;11.87;11.07;;;33.80;16.80;;;;;;4812139;29;21036;-49
2023/05/26 12:34:23;;;;;;;11.87;11.07;;;33.60;17.00;;;;;;4811263;29;20447;-52